Time;durP1;ratioP1;P1;durP2;ratioP2;P2;SDS_P1;SDS_P2;PMS_P1;PMS_P2;Temp;Humidity;BMP_temperature;BMP_pressure;BME280_temperature;BME280_humidity;BME280_pressure;Samples;Min_cycle;Max_cycle;Signal;HPM_P1;HPM_P2
2023/03/19 00:02:13;;;;;;;4.50;2.40;;;;;;;0.41;63.39;63750.94;5075202;28;20097;-77
2023/03/19 00:04:38;;;;;;;2.92;2.33;;;;;;;0.39;63.57;63748.72;5077301;28;20126;-77
2023/03/19 00:07:04;;;;;;;6.15;3.28;;;;;;;0.43;63.30;63769.38;5077177;28;20036;-78
2023/03/19 00:09:30;;;;;;;3.92;2.78;;;;;;;0.40;63.21;63750.38;5094029;28;20478;-77
2023/03/19 00:11:56;;;;;;;3.72;2.47;;;;;;;0.35;63.10;63744.28;5094446;28;20044;-78
2023/03/19 00:14:22;;;;;;;4.88;2.70;;;;;;;0.31;63.50;63740.38;5089405;28;20035;-77
2023/03/19 00:16:49;;;;;;;2.20;1.63;;;;;;;0.31;63.10;63739.81;5095554;28;20111;-77
2023/03/19 00:19:15;;;;;;;3.47;1.80;;;;;;;0.32;63.15;63756.56;5094088;28;20085;-77
2023/03/19 00:21:41;;;;;;;2.33;1.90;;;;;;;0.28;63.69;63737.03;5095296;28;20036;-77
2023/03/19 00:24:08;;;;;;;2.72;1.90;;;;;;;0.29;63.05;63737.59;5094052;28;20047;-77
2023/03/19 00:26:35;;;;;;;3.40;1.80;;;;;;;0.23;63.30;63732.03;5094492;28;20070;-77
2023/03/19 00:29:02;;;;;;;3.05;1.77;;;;;;;0.18;63.60;63725.88;5060348;28;20055;-77
2023/03/19 00:31:28;;;;;;;1.77;1.67;;;;;;;0.21;63.42;63729.78;5077062;28;20449;-77
2023/03/19 00:33:56;;;;;;;2.15;1.75;;;;;;;0.28;63.48;63736.47;5094114;28;20103;-78
2023/03/19 00:36:24;;;;;;;1.65;1.55;;;;;;;0.23;63.34;63747.09;5093606;28;20079;-76
2023/03/19 00:38:50;;;;;;;2.72;1.90;;;;;;;0.14;63.59;63737.06;5093582;28;20112;-77
2023/03/19 00:41:17;;;;;;;2.53;1.65;;;;;;;0.12;63.80;63719.78;5060108;28;20495;-78
2023/03/19 00:43:43;;;;;;;2.83;1.63;;;;;;;0.11;63.63;63718.63;5093451;28;20072;-79
2023/03/19 00:46:13;;;;;;;2.03;1.77;;;;;;;0.11;63.92;63733.72;5076603;28;20039;-78
2023/03/19 00:48:42;;;;;;;2.42;1.90;;;;;;;0.04;63.60;63710.28;5076832;28;20046;-78
2023/03/19 00:51:10;;;;;;;2.83;2.13;;;;;;;0.17;63.72;63724.78;5094380;28;20048;-78
2023/03/19 00:53:38;;;;;;;1.90;1.77;;;;;;;0.11;63.61;63718.63;5076689;28;20406;-78
2023/03/19 00:56:06;;;;;;;4.32;2.25;;;;;;;0.13;63.74;63736.50;5094391;28;20036;-79
2023/03/19 00:58:33;;;;;;;2.10;1.85;;;;;;;0.16;64.00;63724.22;5076372;28;20479;-80
2023/03/19 01:01:00;;;;;;;3.03;1.83;;;;;;;0.14;64.35;63721.97;5093331;28;20063;-79
2023/03/19 01:03:27;;;;;;;6.03;1.92;;;;;;;0.19;63.79;63727.56;5094403;28;20094;-78
2023/03/19 01:05:53;;;;;;;1.83;1.70;;;;;;;0.22;63.59;63730.34;5076045;28;20044;-79
2023/03/19 01:08:19;;;;;;;2.90;1.80;;;;;;;0.24;63.95;63733.13;5093143;28;20047;-78
2023/03/19 01:10:45;;;;;;;2.97;2.00;;;;;;;0.19;63.92;63727.56;5075401;28;20043;-78
2023/03/19 01:13:12;;;;;;;1.92;1.77;;;;;;;0.20;64.16;63728.69;5094427;28;20536;-78
2023/03/19 01:15:39;;;;;;;3.28;2.03;;;;;;;0.26;63.98;63734.22;5076241;28;20127;-79
2023/03/19 01:18:07;;;;;;;6.55;2.33;;;;;;;0.33;64.43;63742.03;5092874;28;20040;-80
2023/03/19 01:20:35;;;;;;;4.20;2.58;;;;;;;0.34;64.16;63743.16;5076099;28;20490;-79
2023/03/19 01:23:01;;;;;;;4.68;2.88;;;;;;;0.45;64.27;63755.41;5072349;28;20384;-79
2023/03/19 01:25:27;;;;;;;10.27;3.28;;;;;;;0.57;63.83;63768.78;5055909;28;20047;-79
2023/03/19 01:28:00;;;;;;;8.38;3.97;;;;;;;0.59;64.03;63771.00;5072124;28;20069;-78
2023/03/19 01:30:26;;;;;;;6.57;3.45;;;;;;;0.49;64.25;63759.88;5072739;28;20137;-79
2023/03/19 01:33:13;;;;;;;13.65;4.43;;;;;;;0.41;64.48;63766.59;5057825;28;20044;-79
2023/03/19 01:36:04;;;;;;;15.00;4.70;;;;;;;0.45;64.57;63755.97;5057757;28;20151;-78
2023/03/19 01:38:50;;;;;;;12.68;5.07;;;;;;;0.51;65.00;63762.09;5055408;28;20048;-79
2023/03/19 01:41:17;;;;;;;14.75;6.07;;;;;;;0.57;64.62;63787.03;5072406;28;20048;-78
2023/03/19 01:43:43;;;;;;;22.10;6.68;;;;;;;0.60;64.71;63772.13;5055890;28;20186;-79
2023/03/19 01:46:47;;;;;;;15.60;6.18;;;;;;;0.58;64.93;63769.88;5059454;28;20043;-79
2023/03/19 01:49:21;;;;;;;15.63;6.00;;;;;;;0.64;64.58;63776.59;5073590;28;20503;-79
2023/03/19 01:51:54;;;;;;;17.42;6.05;;;;;;;0.76;64.86;63788.84;5075195;28;20036;-78
2023/03/19 01:54:35;;;;;;;22.23;6.85;;;;;;;0.86;64.54;63800.53;5075869;28;20097;-79
2023/03/19 01:57:31;;;;;;;21.63;6.47;;;;;;;0.94;64.42;63808.88;5073588;28;20056;-79
2023/03/19 02:00:15;;;;;;;22.77;6.75;;;;;;;1.09;64.31;63825.03;5092377;28;20394;-75
2023/03/19 02:02:52;;;;;;;14.07;5.78;;;;;;;1.12;64.26;63828.41;5093337;28;20040;-76
2023/03/19 02:05:40;;;;;;;22.08;7.07;;;;;;;1.21;63.93;63838.44;5078929;28;20075;-76
2023/03/19 02:08:12;;;;;;;27.05;7.18;;;;;;;1.33;63.61;63851.25;5092018;28;20076;-76
2023/03/19 02:10:40;;;;;;;31.98;7.28;;;;;;;1.44;63.65;63863.53;5109038;28;20032;-76
2023/03/19 02:13:05;;;;;;;22.42;6.93;;;;;;;1.56;63.54;63876.91;5075041;28;20384;-77
2023/03/19 02:15:32;;;;;;;17.75;6.13;;;;;;;1.69;63.26;63891.41;5075120;28;20065;-77
2023/03/19 02:17:57;;;;;;;16.90;6.82;;;;;;;1.73;63.13;63894.75;5091728;28;20043;-77
2023/03/19 02:20:33;;;;;;;16.67;6.00;;;;;;;1.84;62.64;63907.59;5091935;28;20403;-78
2023/03/19 02:23:08;;;;;;;25.50;5.68;;;;;;;1.85;62.29;63908.16;5091339;28;20142;-77
2023/03/19 02:25:43;;;;;;;22.33;6.43;;;;;;;1.77;62.73;63899.19;5091434;28;20047;-76
2023/03/19 02:28:11;;;;;;;21.85;7.15;;;;;;;1.74;62.43;63895.88;5074774;28;20117;-76
2023/03/19 02:30:38;;;;;;;27.23;5.87;;;;;;;1.75;62.38;63896.97;5108921;28;20131;-77
2023/03/19 02:33:12;;;;;;;12.43;5.93;;;;;;;1.85;62.38;63908.16;5075380;28;20040;-76
2023/03/19 02:35:41;;;;;;;18.55;5.47;;;;;;;1.92;62.41;63916.50;5108805;28;20071;-76
2023/03/19 02:38:07;;;;;;;14.93;4.45;;;;;;;2.01;62.00;63925.44;5074911;28;20059;-77
2023/03/19 02:40:40;;;;;;;9.93;4.82;;;;;;;2.08;62.02;63933.81;5074763;28;20039;-76
2023/03/19 02:43:05;;;;;;;6.22;3.95;;;;;;;2.13;61.04;63939.38;5093102;28;20392;-77
2023/03/19 02:45:31;;;;;;;6.97;4.05;;;;;;;2.21;61.06;63947.19;5091954;28;20048;-77
2023/03/19 02:47:58;;;;;;;9.43;3.90;;;;;;;2.30;61.06;63957.25;5091740;28;20048;-77
2023/03/19 02:50:25;;;;;;;5.80;3.88;;;;;;;2.38;60.05;63966.16;5091725;28;20059;-78
2023/03/19 02:52:51;;;;;;;4.65;3.63;;;;;;;2.36;59.35;63963.94;5092454;28;20051;-78
2023/03/19 02:55:17;;;;;;;5.28;3.58;;;;;;;2.42;59.72;63971.19;5058173;28;20070;-76
2023/03/19 02:57:44;;;;;;;4.00;3.50;;;;;;;2.53;59.99;63982.34;5091723;28;20040;-78
2023/03/19 03:00:11;;;;;;;4.95;3.28;;;;;;;2.55;59.58;63984.59;5091703;28;20059;-79
2023/03/19 03:02:37;;;;;;;12.20;4.00;;;;;;;2.61;59.37;63991.28;5091826;28;20113;-78
2023/03/19 03:05:05;;;;;;;7.43;4.30;;;;;;;2.67;59.63;63998.56;5091789;28;20048;-83
2023/03/19 03:07:31;;;;;;;5.80;4.20;;;;;;;2.77;59.64;64024.28;5091466;28;20052;-77
2023/03/19 03:09:57;;;;;;;5.53;3.53;;;;;;;2.88;59.66;64020.88;5093672;28;20044;-80
2023/03/19 03:12:23;;;;;;;4.68;3.47;;;;;;;2.91;59.53;64024.22;5092599;28;20044;-78
2023/03/19 03:14:50;;;;;;;20.05;4.60;;;;;;;2.95;58.79;64028.13;5074961;28;20040;-77
2023/03/19 03:17:18;;;;;;;5.18;3.83;;;;;;;3.01;59.03;64035.41;5091610;28;20047;-76
2023/03/19 03:19:43;;;;;;;6.00;4.10;;;;;;;2.95;58.34;64028.69;5092407;28;20395;-77
2023/03/19 03:22:09;;;;;;;9.45;4.38;;;;;;;3.05;58.51;64039.88;5092684;28;20040;-75
2023/03/19 03:24:35;;;;;;;11.27;4.53;;;;;;;3.06;58.25;64040.44;5074325;28;20471;-77
2023/03/19 03:27:01;;;;;;;6.10;4.63;;;;;;;3.15;58.29;64051.03;5092901;28;20102;-75
2023/03/19 03:29:27;;;;;;;15.00;4.63;;;;;;;3.23;58.28;64058.84;5091485;28;20051;-76
2023/03/19 03:31:53;;;;;;;5.85;4.70;;;;;;;3.27;57.94;64063.31;5091452;28;20498;-80
2023/03/19 03:34:19;;;;;;;9.85;4.63;;;;;;;3.26;57.74;64077.91;5075835;28;20481;-75
2023/03/19 03:36:45;;;;;;;8.45;4.90;;;;;;;3.11;57.35;64046.00;5112276;28;20131;-76
2023/03/19 03:39:12;;;;;;;6.68;5.00;;;;;;;3.08;57.88;64042.66;5112035;28;20143;-77
2023/03/19 03:41:38;;;;;;;5.68;4.78;;;;;;;3.05;57.71;64039.31;5095198;28;20047;-77
2023/03/19 03:44:05;;;;;;;6.18;4.45;;;;;;;3.16;57.51;64051.59;5111671;28;20072;-77
2023/03/19 03:46:33;;;;;;;7.05;5.13;;;;;;;2.96;57.73;64029.81;5077804;28;20040;-76
2023/03/19 03:49:00;;;;;;;6.60;4.95;;;;;;;3.13;57.83;64048.81;5111242;28;20048;-75
2023/03/19 03:51:26;;;;;;;9.00;5.30;;;;;;;3.09;57.36;64060.03;5077574;28;20036;-74
2023/03/19 03:53:52;;;;;;;5.78;4.55;;;;;;;3.22;57.67;64057.72;5094949;28;20078;-76
2023/03/19 03:56:18;;;;;;;8.10;4.70;;;;;;;3.27;57.02;64063.31;5078082;28;20075;-77
2023/03/19 03:58:44;;;;;;;7.25;4.63;;;;;;;3.34;57.17;64071.13;5094442;28;20040;-82
2023/03/19 04:01:14;;;;;;;7.05;4.50;;;;;;;3.38;56.84;64076.16;5077584;28;20048;-82
2023/03/19 04:03:41;;;;;;;7.97;4.68;;;;;;;3.41;56.92;64079.50;5058131;28;20491;-76
2023/03/19 04:06:07;;;;;;;8.15;5.38;;;;;;;3.54;56.65;64093.50;5094319;28;20418;-78
2023/03/19 04:08:33;;;;;;;6.90;4.45;;;;;;;3.60;56.48;64100.19;5094032;28;20051;-78
2023/03/19 04:10:59;;;;;;;16.15;4.88;;;;;;;3.56;55.94;64095.16;5093629;28;20414;-79
2023/03/19 04:13:25;;;;;;;7.80;4.65;;;;;;;3.57;56.14;64096.84;5110574;28;20032;-80
2023/03/19 04:15:53;;;;;;;5.70;4.63;;;;;;;3.64;56.14;64104.09;5109890;28;20055;-79
2023/03/19 04:18:19;;;;;;;8.20;5.43;;;;;;;3.63;55.53;64103.53;5076410;28;20406;-78
2023/03/19 04:20:45;;;;;;;8.63;4.63;;;;;;;3.55;55.47;64094.59;5090397;28;20125;-78
2023/03/19 04:23:11;;;;;;;7.57;4.60;;;;;;;3.55;55.25;64094.06;5048495;28;20099;-79
2023/03/19 04:25:40;;;;;;;7.55;4.57;;;;;;;3.64;55.20;64104.66;5056744;28;20147;-78
2023/03/19 04:28:06;;;;;;;21.35;4.50;;;;;;;3.51;54.45;64090.13;5055993;28;20072;-77
2023/03/19 04:30:32;;;;;;;9.77;4.47;;;;;;;3.43;54.85;64096.91;5072669;28;20154;-82
2023/03/19 04:32:59;;;;;;;5.50;4.13;;;;;;;3.59;54.47;64098.53;5039798;28;20395;-82
2023/03/19 04:35:26;;;;;;;11.57;4.93;;;;;;;3.77;55.75;64118.09;5022576;28;20053;-81
2023/03/19 04:37:51;;;;;;;4.93;4.00;;;;;;;3.85;54.89;64127.59;5040098;28;20399;-81
2023/03/19 04:40:19;;;;;;;4.97;3.75;;;;;;;3.74;54.30;64114.72;5073221;28;20044;-82
2023/03/19 04:42:47;;;;;;;6.70;4.38;;;;;;;3.89;53.72;64131.50;5073106;28;20055;-78
2023/03/19 04:45:24;;;;;;;5.25;3.42;;;;;;;3.83;52.39;64124.78;5072610;28;20052;-78
2023/03/19 04:47:50;;;;;;;6.38;3.78;;;;;;;3.67;51.67;64106.91;5073455;28;20058;-78
2023/03/19 04:50:17;;;;;;;6.10;4.00;;;;;;;3.67;52.51;64107.47;5056155;28;20048;-77
2023/03/19 04:52:44;;;;;;;7.43;3.55;;;;;;;3.86;52.14;64128.13;5072755;28;20185;-79
2023/03/19 04:55:11;;;;;;;5.60;3.50;;;;;;;4.01;51.78;64144.91;5072642;28;20051;-78
2023/03/19 04:58:03;;;;;;;8.27;3.65;;;;;;;3.94;50.75;64137.09;5049521;28;20056;-79
2023/03/19 05:00:32;;;;;;;4.53;3.40;;;;;;;3.91;51.01;64133.72;5072443;28;20047;-78
2023/03/19 05:02:59;;;;;;;14.73;3.95;;;;;;;3.98;50.88;64141.56;5056454;28;20067;-80
2023/03/19 05:05:27;;;;;;;7.18;3.70;;;;;;;4.01;50.25;64144.91;5055602;28;20040;-78
2023/03/19 05:07:53;;;;;;;5.38;3.85;;;;;;;3.99;49.88;64142.13;5072163;28;20036;-78
2023/03/19 05:10:20;;;;;;;5.65;3.40;;;;;;;4.02;49.67;64145.47;5071482;28;20049;-75
2023/03/19 05:12:46;;;;;;;6.85;3.95;;;;;;;4.20;49.97;64165.03;5080776;28;20094;-77
2023/03/19 05:15:15;;;;;;;8.98;3.83;;;;;;;4.35;49.93;64181.81;5074764;28;20051;-78
2023/03/19 05:17:50;;;;;;;4.22;3.30;;;;;;;4.11;49.00;64156.09;5057216;28;20056;-77
2023/03/19 05:20:29;;;;;;;8.07;3.97;;;;;;;4.25;49.76;64171.19;5040741;28;20446;-80
2023/03/19 05:23:01;;;;;;;9.75;4.00;;;;;;;4.44;49.62;64191.88;5055241;28;20040;-79
2023/03/19 05:25:36;;;;;;;6.00;3.90;;;;;;;4.53;48.78;64201.94;5039956;28;20052;-80
2023/03/19 05:28:06;;;;;;;7.10;4.20;;;;;;;4.75;49.23;64225.44;5054960;28;20135;-78
2023/03/19 05:30:33;;;;;;;9.00;3.97;;;;;;;4.94;48.84;64246.72;5071103;28;20044;-79
2023/03/19 05:33:16;;;;;;;6.53;3.70;;;;;;;5.08;48.12;64261.81;5071215;28;20055;-81
2023/03/19 05:35:44;;;;;;;6.97;3.60;;;;;;;4.96;47.19;64248.38;5039172;28;20040;-81
2023/03/19 05:38:20;;;;;;;5.15;3.28;;;;;;;4.59;45.52;64208.66;5055729;28;20041;-77
2023/03/19 05:40:53;;;;;;;22.42;3.33;;;;;;;4.52;45.51;64200.84;5072082;28;20036;-79
2023/03/19 05:43:26;;;;;;;7.45;3.08;;;;;;;4.58;44.57;64207.53;5065290;28;20061;-81
2023/03/19 05:45:53;;;;;;;11.63;2.95;;;;;;;4.68;44.58;64217.63;5068126;28;20036;-79
2023/03/19 05:48:22;;;;;;;4.22;2.65;;;;;;;4.93;44.20;64245.59;5072156;28;20128;-80
2023/03/19 05:50:48;;;;;;;4.28;3.00;;;;;;;4.86;44.47;64237.75;5038664;28;20485;-78
2023/03/19 05:53:22;;;;;;;4.75;2.78;;;;;;;4.98;44.23;64251.19;5071943;28;20044;-79
2023/03/19 05:56:20;;;;;;;5.13;2.60;;;;;;;5.31;43.65;64287.00;5070829;28;20036;-81
2023/03/19 05:59:09;;;;;;;4.72;2.40;;;;;;;5.33;43.03;64289.25;5070294;28;20052;-79
2023/03/19 06:01:39;;;;;;;11.65;2.63;;;;;;;5.23;42.70;64278.63;5054203;28;20045;-79
2023/03/19 06:04:06;;;;;;;4.78;2.67;;;;;;;5.13;41.96;64267.41;5053521;28;20032;-78
2023/03/19 06:06:32;;;;;;;18.35;6.03;;;;;;;5.36;41.86;64292.59;5038146;28;20040;-77
2023/03/19 06:08:58;;;;;;;5.20;2.70;;;;;;;5.17;41.41;64271.34;5072356;28;20041;-79
2023/03/19 06:11:32;;;;;;;3.92;2.15;;;;;;;5.06;41.17;64259.56;5054960;28;20080;-80
2023/03/19 06:14:20;;;;;;;3.28;2.53;;;;;;;5.01;40.56;64254.53;5076967;28;20036;-80
2023/03/19 06:17:03;;;;;;;4.28;2.35;;;;;;;4.79;41.43;64229.94;5071919;28;20910;-80
2023/03/19 06:19:29;;;;;;;7.72;2.70;;;;;;;5.09;40.92;64262.94;5038425;28;20041;-81
2023/03/19 06:21:55;;;;;;;3.28;2.30;;;;;;;4.89;40.07;64241.13;5072143;28;20460;-80
2023/03/19 06:24:21;;;;;;;11.65;2.47;;;;;;;4.82;40.06;64233.84;5054546;28;20395;-81
2023/03/19 06:26:47;;;;;;;4.65;2.20;;;;;;;5.03;40.19;64256.78;5037895;28;20060;-81
2023/03/19 06:29:14;;;;;;;8.77;2.15;;;;;;;4.95;39.94;64247.28;5071517;28;20206;-79
2023/03/19 06:31:43;;;;;;;10.77;2.33;;;;;;;4.60;39.55;64209.78;5038835;28;20093;-80
2023/03/19 06:34:32;;;;;;;8.95;2.33;;;;;;;4.38;40.23;64185.72;5072113;28;20419;-79
2023/03/19 06:36:58;;;;;;;8.40;2.30;;;;;;;4.47;39.63;64194.69;5038082;28;20045;-80
2023/03/19 06:39:24;;;;;;;3.90;2.30;;;;;;;4.44;39.88;64191.31;5071424;28;20040;-80
2023/03/19 06:41:50;;;;;;;5.93;2.20;;;;;;;4.30;39.65;64176.78;5037874;28;20037;-79
2023/03/19 06:44:19;;;;;;;10.35;2.33;;;;;;;4.28;39.91;64173.97;5038542;28;20044;-81
2023/03/19 06:46:45;;;;;;;5.53;2.10;;;;;;;4.56;40.41;64205.31;5072408;28;20375;-80
2023/03/19 06:49:11;;;;;;;5.13;2.40;;;;;;;4.79;39.63;64229.94;5037875;28;20037;-78
2023/03/19 06:51:37;;;;;;;10.20;3.10;;;;;;;4.91;39.49;64243.34;5054759;28;20053;-79
2023/03/19 06:54:03;;;;;;;10.10;2.78;;;;;;;5.06;39.60;64260.13;5054418;28;20383;-78
2023/03/19 06:56:29;;;;;;;6.57;2.45;;;;;;;4.97;38.91;64250.06;5037862;28;20052;-80
2023/03/19 06:58:55;;;;;;;6.32;2.40;;;;;;;4.93;39.22;64245.59;5054370;28;20480;-79
2023/03/19 07:01:21;;;;;;;9.18;2.47;;;;;;;4.97;39.10;64250.06;5071331;28;20060;-79
2023/03/19 07:03:47;;;;;;;4.95;2.50;;;;;;;5.10;38.31;64264.59;5037805;28;20044;-80
2023/03/19 07:06:13;;;;;;;9.18;2.67;;;;;;;5.00;38.84;64252.84;5070973;28;20083;-79
2023/03/19 07:08:44;;;;;;;8.98;2.22;;;;;;;4.86;38.20;64237.75;5038436;28;20040;-80
2023/03/19 07:11:11;;;;;;;8.48;2.20;;;;;;;4.96;38.42;64248.94;5076095;28;20044;-79
2023/03/19 07:13:37;;;;;;;3.53;2.20;;;;;;;5.27;38.79;64282.53;5074708;28;20414;-80
2023/03/19 07:16:03;;;;;;;5.22;2.25;;;;;;;5.63;38.29;64321.72;5058384;28;20495;-78
2023/03/19 07:18:29;;;;;;;10.48;2.13;;;;;;;5.57;36.30;64315.56;5058170;28;20052;-81
2023/03/19 07:20:55;;;;;;;3.97;2.05;;;;;;;5.82;37.21;64343.56;5041350;28;20460;-79
2023/03/19 07:23:21;;;;;;;4.28;1.98;;;;;;;5.92;36.56;64353.66;5074687;28;20454;-79
2023/03/19 07:25:47;;;;;;;4.05;1.85;;;;;;;6.07;36.35;64371.03;5074808;28;20051;-81
2023/03/19 07:28:14;;;;;;;3.15;1.70;;;;;;;5.87;35.63;64348.59;5057774;28;20052;-79
2023/03/19 07:30:40;;;;;;;8.57;1.77;;;;;;;5.77;35.74;64337.97;5075925;28;20493;-80
2023/03/19 07:33:06;;;;;;;3.75;2.25;;;;;;;5.77;36.24;64337.97;5074333;28;20074;-79
2023/03/19 07:35:33;;;;;;;5.63;2.42;;;;;;;6.03;35.59;64366.53;5057994;28;20174;-80
2023/03/19 07:37:59;;;;;;;11.60;2.78;;;;;;;6.11;35.55;64374.38;5041196;28;20044;-79
2023/03/19 07:40:25;;;;;;;3.10;2.08;;;;;;;5.90;34.88;64351.94;5075583;28;20066;-80
2023/03/19 07:42:52;;;;;;;13.20;3.20;;;;;;;6.30;36.03;64396.25;5057785;28;20411;-80
2023/03/19 07:45:17;;;;;;;11.68;2.58;;;;;;;6.68;35.65;64437.16;5074405;28;20141;-79
2023/03/19 07:47:44;;;;;;;10.68;2.50;;;;;;;7.05;35.21;64478.09;5074290;28;20127;-81
2023/03/19 07:50:10;;;;;;;4.25;2.22;;;;;;;7.10;34.25;64483.69;5057714;28;20041;-80
2023/03/19 07:52:36;;;;;;;11.45;2.10;;;;;;;7.06;34.35;64479.75;5057108;28;20395;-80
2023/03/19 07:55:02;;;;;;;9.48;2.22;;;;;;;7.29;34.08;64504.44;5040793;28;20043;-82
2023/03/19 07:57:29;;;;;;;3.50;2.28;;;;;;;7.52;32.96;64529.66;5074184;28;20037;-80
2023/03/19 07:59:55;;;;;;;12.75;2.20;;;;;;;7.51;33.22;64529.13;5076740;28;20119;-79
2023/03/19 08:02:20;;;;;;;8.23;2.65;;;;;;;7.64;33.09;64542.59;5089540;28;20174;-79
2023/03/19 08:04:46;;;;;;;6.82;2.47;;;;;;;7.76;33.18;64556.63;5040567;28;20059;-79
2023/03/19 08:07:12;;;;;;;19.42;2.92;;;;;;;7.99;33.34;64581.88;5057468;28;20409;-78
2023/03/19 08:09:39;;;;;;;17.45;3.15;;;;;;;8.16;32.86;64600.41;5040574;28;20106;-79
2023/03/19 08:12:06;;;;;;;6.32;2.83;;;;;;;8.23;32.78;64607.69;5056965;28;20139;-79
2023/03/19 08:14:33;;;;;;;11.68;2.58;;;;;;;8.27;32.20;64612.16;5040775;28;20047;-78
2023/03/19 08:17:00;;;;;;;3.92;2.20;;;;;;;8.24;31.70;64608.81;5050707;28;20036;-80
2023/03/19 08:19:27;;;;;;;6.55;2.20;;;;;;;8.21;31.61;64606.00;5039957;28;20143;-78
2023/03/19 08:21:53;;;;;;;4.55;2.10;;;;;;;8.29;32.42;64614.44;5056920;28;20047;-80
2023/03/19 08:24:19;;;;;;;4.60;2.40;;;;;;;8.44;31.96;64630.72;5075634;28;20040;-80
2023/03/19 08:26:45;;;;;;;6.20;2.00;;;;;;;8.56;32.21;64643.66;5078380;28;20143;-77
2023/03/19 08:29:11;;;;;;;4.70;2.40;;;;;;;8.56;30.63;64643.66;5039716;28;20060;-77
2023/03/19 08:31:37;;;;;;;5.65;2.25;;;;;;;8.34;31.06;64619.47;5093440;28;20409;-79
2023/03/19 08:34:03;;;;;;;4.68;2.53;;;;;;;8.62;30.98;64650.94;5078164;28;20063;-79
2023/03/19 08:36:30;;;;;;;9.85;2.63;;;;;;;8.82;30.62;64672.84;5056368;28;20037;-82
2023/03/19 08:38:57;;;;;;;5.03;2.50;;;;;;;8.69;30.35;64658.25;5040109;28;20040;-81
2023/03/19 08:41:24;;;;;;;6.10;2.65;;;;;;;8.45;31.28;64632.41;5039707;28;20040;-81
2023/03/19 08:43:50;;;;;;;7.88;2.50;;;;;;;8.43;31.09;64630.19;5072527;28;20040;-79
2023/03/19 08:46:16;;;;;;;13.77;2.83;;;;;;;8.73;31.15;64662.75;5072155;28;20059;-76
2023/03/19 08:48:42;;;;;;;6.55;2.60;;;;;;;8.66;30.57;64654.88;5072576;28;20056;-77
2023/03/19 08:51:09;;;;;;;10.95;2.97;;;;;;;8.52;31.00;64640.28;5055753;28;20048;-81
2023/03/19 08:53:35;;;;;;;7.45;2.67;;;;;;;8.51;30.91;64638.59;5056031;28;20131;-79
2023/03/19 08:56:05;;;;;;;14.60;2.50;;;;;;;8.56;31.04;64643.66;5039060;28;20052;-80
2023/03/19 08:58:31;;;;;;;7.32;2.15;;;;;;;8.90;30.80;64681.84;5074042;28;20044;-77
2023/03/19 09:01:03;;;;;;;5.75;2.30;;;;;;;8.87;30.54;64677.91;5038604;28;20045;-80
2023/03/19 09:03:29;;;;;;;8.27;2.40;;;;;;;8.63;31.11;64651.50;5055766;28;20040;-80
2023/03/19 09:06:03;;;;;;;8.70;3.08;;;;;;;8.84;30.75;64675.09;5039473;28;20127;-78
2023/03/19 09:08:29;;;;;;;10.73;3.08;;;;;;;8.55;30.05;64643.09;5072559;28;20477;-78
2023/03/19 09:10:56;;;;;;;8.68;2.40;;;;;;;8.69;29.79;64658.81;5072242;28;20044;-79
2023/03/19 09:13:23;;;;;;;7.95;2.20;;;;;;;8.60;29.22;64648.13;5055587;28;20051;-79
2023/03/19 09:15:50;;;;;;;16.55;2.88;;;;;;;8.48;29.34;64635.78;5071428;28;20159;-77
2023/03/19 09:18:17;;;;;;;2.80;2.15;;;;;;;8.57;29.51;64645.31;5038669;28;20055;-78
2023/03/19 09:20:44;;;;;;;5.07;2.60;;;;;;;8.88;29.75;64679.59;5072106;28;20553;-79
2023/03/19 09:23:09;;;;;;;7.13;2.33;;;;;;;8.86;29.40;64677.34;5071973;28;20151;-78
2023/03/19 09:25:35;;;;;;;3.40;2.60;;;;;;;8.83;29.36;64673.41;5055382;28;20570;-77
2023/03/19 09:28:01;;;;;;;4.13;2.40;;;;;;;8.81;29.94;64671.72;5071614;28;20066;-78
2023/03/19 09:30:27;;;;;;;7.90;2.63;;;;;;;8.78;29.57;64667.81;5055113;28;20044;-77
2023/03/19 09:32:54;;;;;;;3.50;2.50;;;;;;;8.78;29.95;64668.34;5056557;28;20044;-79
2023/03/19 09:35:20;;;;;;;32.40;3.13;;;;;;;8.66;29.72;64654.88;5077306;28;20044;-79
2023/03/19 09:37:46;;;;;;;14.88;3.05;;;;;;;8.30;29.67;64614.97;5092507;28;20124;-77
2023/03/19 09:40:49;;;;;;;19.85;2.58;;;;;;;8.11;29.53;64594.78;5093302;28;20051;-77
2023/03/19 09:43:36;;;;;;;11.82;2.50;;;;;;;8.10;27.97;64593.09;5004896;28;20064;-79
2023/03/19 09:46:10;;;;;;;3.75;2.05;;;;;;;8.21;28.49;64606.00;5092457;28;20092;-78
2023/03/19 09:48:50;;;;;;;4.10;2.10;;;;;;;8.01;27.60;64584.13;5091036;28;20052;-78
2023/03/19 09:51:29;;;;;;;6.88;2.67;;;;;;;8.08;28.31;64590.84;5072080;28;20040;-78
2023/03/19 09:54:10;;;;;;;3.63;2.08;;;;;;;8.25;28.17;64609.94;5039217;28;20491;-78
2023/03/19 09:56:36;;;;;;;7.78;2.40;;;;;;;8.41;27.70;64627.91;5072183;28;20045;-77
2023/03/19 09:59:02;;;;;;;4.43;2.28;;;;;;;8.32;26.82;64617.25;5038865;28;20138;-78
2023/03/19 10:01:39;;;;;;;6.45;2.38;;;;;;;8.42;28.15;64628.47;5072126;28;20044;-77
2023/03/19 10:04:30;;;;;;;7.03;2.97;;;;;;;8.67;28.38;64656.00;5073503;28;20108;-77
2023/03/19 10:07:22;;;;;;;8.50;2.20;;;;;;;8.54;28.12;64641.38;5065081;28;20040;-78
2023/03/19 10:10:02;;;;;;;6.40;2.30;;;;;;;8.28;29.04;64613.31;5054956;28;20489;-78
2023/03/19 10:12:52;;;;;;;3.80;2.28;;;;;;;8.31;29.79;64616.66;5055172;28;20119;-78
2023/03/19 10:15:29;;;;;;;7.68;2.13;;;;;;;8.10;29.47;64593.66;5071970;28;20047;-76
2023/03/19 10:18:08;;;;;;;2.67;2.03;;;;;;;8.03;29.44;64586.34;5073159;28;20048;-77
2023/03/19 10:20:55;;;;;;;12.02;2.78;;;;;;;7.85;30.25;64565.59;5084898;28;20052;-77
2023/03/19 10:23:33;;;;;;;13.40;2.50;;;;;;;7.64;30.47;64543.16;5100893;28;20047;-76
2023/03/19 10:26:03;;;;;;;3.08;2.35;;;;;;;7.84;30.34;64564.47;5071607;28;20063;-77
2023/03/19 10:28:29;;;;;;;5.25;2.55;;;;;;;8.11;29.97;64594.78;5039653;28;20041;-77
2023/03/19 10:31:08;;;;;;;5.53;2.47;;;;;;;7.98;29.43;64580.75;5055339;28;20044;-79
2023/03/19 10:33:50;;;;;;;7.03;2.72;;;;;;;7.80;29.89;64560.53;5057880;28;20044;-79
2023/03/19 10:36:25;;;;;;;2.40;1.90;;;;;;;7.91;29.98;64572.31;5077038;28;20093;-77
2023/03/19 10:38:51;;;;;;;4.35;2.30;;;;;;;7.99;29.88;64581.31;5096297;28;20043;-78
2023/03/19 10:41:29;;;;;;;2.85;2.40;;;;;;;8.02;29.80;64585.25;5090528;28;20040;-78
2023/03/19 10:44:01;;;;;;;13.75;2.42;;;;;;;7.95;29.89;64577.38;5094635;28;20051;-76
2023/03/19 10:46:35;;;;;;;13.63;2.20;;;;;;;7.45;30.65;64522.41;5097057;28;20170;-79
2023/03/19 10:49:01;;;;;;;3.97;2.20;;;;;;;7.67;30.84;64545.94;5113617;28;20165;-77
2023/03/19 10:51:27;;;;;;;3.30;2.20;;;;;;;7.64;30.03;64542.59;5113088;28;20483;-78
2023/03/19 10:53:56;;;;;;;16.10;2.53;;;;;;;7.71;30.20;64551.00;5097844;28;20040;-78
2023/03/19 10:56:25;;;;;;;11.60;2.47;;;;;;;7.52;30.24;64530.25;5080638;28;20490;-77
2023/03/19 10:58:58;;;;;;;6.78;2.10;;;;;;;7.72;30.13;64551.56;5097538;28;20075;-76
2023/03/19 11:01:32;;;;;;;8.60;2.40;;;;;;;7.84;29.79;64565.03;5095658;28;20105;-76
2023/03/19 11:04:00;;;;;;;8.60;2.50;;;;;;;7.84;29.57;64565.03;5091003;28;20032;-77
2023/03/19 11:06:35;;;;;;;7.85;2.13;;;;;;;7.87;29.68;64568.41;5080085;28;20071;-77
2023/03/19 11:09:14;;;;;;;35.13;3.45;;;;;;;7.78;30.18;64558.28;5042629;28;20044;-76
2023/03/19 11:11:53;;;;;;;2.60;1.70;;;;;;;7.81;29.38;64561.66;5084084;28;20043;-77
2023/03/19 11:14:23;;;;;;;9.30;1.98;;;;;;;7.72;29.22;64552.13;5041712;28;20131;-78
2023/03/19 11:16:55;;;;;;;6.03;1.77;;;;;;;7.72;29.19;64551.56;5041800;28;20049;-76
2023/03/19 11:19:27;;;;;;;5.70;1.67;;;;;;;7.55;28.76;64533.03;5075160;28;20446;-77
2023/03/19 11:22:19;;;;;;;19.42;2.28;;;;;;;7.53;29.04;64531.38;5058359;28;20044;-77
2023/03/19 11:24:53;;;;;;;5.07;2.22;;;;;;;7.43;29.56;64520.13;5057986;28;20049;-78
2023/03/19 11:27:32;;;;;;;4.10;2.00;;;;;;;7.48;29.94;64525.19;5074530;28;20140;-79
2023/03/19 11:29:58;;;;;;;2.97;1.95;;;;;;;7.39;29.82;64515.66;5075957;28;20415;-77
2023/03/19 11:33:01;;;;;;;6.10;1.90;;;;;;;7.41;29.57;64517.91;5074674;28;20048;-76
2023/03/19 11:35:44;;;;;;;5.20;1.70;;;;;;;7.39;29.75;64515.09;5041177;28;20048;-76
2023/03/19 11:38:33;;;;;;;1.88;1.70;;;;;;;7.26;29.53;64501.09;5074945;28;20498;-76
2023/03/19 11:41:18;;;;;;;5.90;1.73;;;;;;;7.19;28.95;64493.78;5074692;28;20052;-77
2023/03/19 11:43:58;;;;;;;4.57;1.60;;;;;;;7.11;29.12;64484.25;5041055;28;20049;-77
2023/03/19 11:46:35;;;;;;;5.90;1.58;;;;;;;6.96;28.98;64468.56;5074316;28;20078;-77
2023/03/19 11:49:01;;;;;;;31.23;3.58;;;;;;;6.81;29.95;64452.28;5074385;28;20044;-77
2023/03/19 11:51:50;;;;;;;9.82;2.95;;;;;;;6.71;29.70;64441.06;5057456;28;20044;-76
2023/03/19 11:54:39;;;;;;;6.78;1.92;;;;;;;6.65;29.74;64433.78;5056744;28;20048;-77